Time;durP1;ratioP1;P1;durP2;ratioP2;P2;SDS_P1;SDS_P2;PMS_P1;PMS_P2;Temp;Humidity;BMP_temperature;BMP_pressure;BME280_temperature;BME280_humidity;BME280_pressure;Samples;Min_cycle;Max_cycle;Signal;HPM_P1;HPM_P2
2022/08/02 00:01:44;;;;;;;10.15;2.38;;;;;;;;;;4992701;28;20049;-49
2022/08/02 00:04:11;;;;;;;11.75;2.10;;;;;;;;;;4985976;28;20066;-47
2022/08/02 00:06:37;;;;;;;5.07;2.23;;;;;;;;;;4999255;28;20049;-47
2022/08/02 00:09:04;;;;;;;6.00;1.92;;;;;;;;;;4994330;28;20105;-45
2022/08/02 00:11:31;;;;;;;6.45;2.10;;;;;;;;;;4982853;28;20531;-48
2022/08/02 00:13:59;;;;;;;6.18;2.25;;;;;;;;;;4986842;28;20046;-47
2022/08/02 00:16:26;;;;;;;8.38;2.72;;;;;;;;;;4971582;28;20044;-45
2022/08/02 00:18:52;;;;;;;6.10;2.20;;;;;;;;;;4969627;28;20037;-47
2022/08/02 00:21:19;;;;;;;6.65;2.40;;;;;;;;;;4999433;28;20061;-45
2022/08/02 00:23:45;;;;;;;8.85;2.30;;;;;;;;;;4979183;28;20073;-46
2022/08/02 00:26:12;;;;;;;5.32;1.98;;;;;;;;;;4991973;28;20041;-47
2022/08/02 00:28:38;;;;;;;5.40;1.92;;;;;;;;;;4979177;28;20069;-48
2022/08/02 00:31:06;;;;;;;5.40;2.07;;;;;;;;;;4994212;28;20077;-46
2022/08/02 00:33:33;;;;;;;5.88;2.10;;;;;;;;;;4964138;28;20093;-50
2022/08/02 00:35:59;;;;;;;7.30;2.33;;;;;;;;;;4985590;28;20045;-46
2022/08/02 00:38:25;;;;;;;5.65;1.70;;;;;;;;;;4991153;28;20046;-47
2022/08/02 00:40:53;;;;;;;6.68;1.90;;;;;;;;;;4990953;28;20492;-45
2022/08/02 00:43:19;;;;;;;4.90;1.67;;;;;;;;;;4990450;28;20054;-45
2022/08/02 00:45:46;;;;;;;6.88;2.30;;;;;;;;;;4987020;28;20074;-45
2022/08/02 00:48:14;;;;;;;5.70;1.80;;;;;;;;;;4983483;28;20042;-45
2022/08/02 00:50:40;;;;;;;9.88;2.03;;;;;;;;;;4991363;28;20133;-46
2022/08/02 00:53:08;;;;;;;5.13;1.73;;;;;;;;;;4994509;28;20499;-46
2022/08/02 00:55:35;;;;;;;7.67;1.80;;;;;;;;;;4984397;28;20625;-45
2022/08/02 00:58:01;;;;;;;5.65;1.70;;;;;;;;;;4990626;28;20053;-47
2022/08/02 01:00:28;;;;;;;6.63;2.20;;;;;;;;;;4978014;28;20038;-45
2022/08/02 01:02:54;;;;;;;5.90;1.75;;;;;;;;;;4993524;28;20045;-45
2022/08/02 01:05:23;;;;;;;6.18;1.70;;;;;;;;;;4983528;28;20054;-46
2022/08/02 01:07:49;;;;;;;5.93;1.70;;;;;;;;;;4992768;28;20244;-47
2022/08/02 01:10:16;;;;;;;7.97;2.42;;;;;;;;;;5002030;28;20057;-47
2022/08/02 01:12:43;;;;;;;4.93;1.70;;;;;;;;;;4970863;28;20041;-45
2022/08/02 01:15:11;;;;;;;6.40;1.90;;;;;;;;;;4984767;28;20042;-47
2022/08/02 01:17:43;;;;;;;5.28;1.80;;;;;;;;;;4974696;28;20041;-48
2022/08/02 01:20:15;;;;;;;5.17;1.80;;;;;;;;;;5004039;28;20054;-48
2022/08/02 01:22:50;;;;;;;6.53;1.88;;;;;;;;;;4973889;28;20315;-48
2022/08/02 01:25:25;;;;;;;8.00;2.03;;;;;;;;;;4994880;28;20089;-47
2022/08/02 01:28:02;;;;;;;5.30;2.00;;;;;;;;;;4991231;28;20034;-46
2022/08/02 01:30:29;;;;;;;6.45;1.77;;;;;;;;;;4961477;28;20049;-44
2022/08/02 01:32:58;;;;;;;6.30;1.80;;;;;;;;;;5008806;28;20092;-45
2022/08/02 01:35:27;;;;;;;6.50;2.00;;;;;;;;;;4989255;28;20038;-49
2022/08/02 01:37:56;;;;;;;6.00;1.70;;;;;;;;;;4969769;28;20053;-46
2022/08/02 01:40:25;;;;;;;5.13;1.65;;;;;;;;;;4996861;28;20044;-45
2022/08/02 01:42:53;;;;;;;8.02;1.98;;;;;;;;;;4992934;28;20663;-47
2022/08/02 01:45:23;;;;;;;6.50;1.93;;;;;;;;;;4965716;28;20069;-48
2022/08/02 01:47:51;;;;;;;9.38;1.92;;;;;;;;;;5001867;28;20054;-48
2022/08/02 01:50:18;;;;;;;6.03;2.05;;;;;;;;;;5002469;28;20058;-47
2022/08/02 01:52:47;;;;;;;8.43;2.40;;;;;;;;;;4996111;28;20049;-48
2022/08/02 01:55:18;;;;;;;6.28;2.22;;;;;;;;;;4995229;28;20488;-46
2022/08/02 01:57:46;;;;;;;7.37;2.23;;;;;;;;;;5003011;28;20034;-49
2022/08/02 02:00:13;;;;;;;7.07;2.08;;;;;;;;;;4978330;28;20068;-47
2022/08/02 02:02:47;;;;;;;6.28;2.05;;;;;;;;;;4970600;28;20046;-46
2022/08/02 02:05:16;;;;;;;5.40;2.05;;;;;;;;;;5006145;28;20116;-48
2022/08/02 02:07:43;;;;;;;7.82;2.10;;;;;;;;;;4997342;28;20351;-48
2022/08/02 02:10:11;;;;;;;5.73;1.87;;;;;;;;;;4994982;28;20050;-46
2022/08/02 02:12:39;;;;;;;7.20;1.80;;;;;;;;;;5000979;28;20041;-46
2022/08/02 02:15:08;;;;;;;6.82;1.90;;;;;;;;;;4997703;28;20419;-47
2022/08/02 02:17:34;;;;;;;7.22;2.10;;;;;;;;;;4983347;28;20041;-47
2022/08/02 02:20:02;;;;;;;6.03;2.08;;;;;;;;;;5001994;28;20045;-47
2022/08/02 02:22:29;;;;;;;6.73;2.27;;;;;;;;;;4986023;28;20037;-47
2022/08/02 02:24:55;;;;;;;6.38;2.22;;;;;;;;;;4969979;28;20109;-46
2022/08/02 02:27:23;;;;;;;6.45;2.13;;;;;;;;;;4994386;28;20061;-45
2022/08/02 02:29:51;;;;;;;7.60;1.90;;;;;;;;;;4972295;28;20049;-45
2022/08/02 02:32:18;;;;;;;6.15;1.98;;;;;;;;;;4967001;28;20038;-46
2022/08/02 02:34:46;;;;;;;6.03;2.17;;;;;;;;;;4985197;28;20042;-47
2022/08/02 02:37:16;;;;;;;5.63;1.65;;;;;;;;;;4996857;28;20472;-46
2022/08/02 02:39:44;;;;;;;6.50;2.10;;;;;;;;;;4999704;28;20629;-46
2022/08/02 02:42:11;;;;;;;5.72;1.70;;;;;;;;;;4999914;28;20050;-47
2022/08/02 02:44:39;;;;;;;7.32;1.80;;;;;;;;;;4987267;28;20052;-46
2022/08/02 02:47:06;;;;;;;5.83;1.80;;;;;;;;;;5003374;28;20041;-48
2022/08/02 02:49:34;;;;;;;7.25;1.80;;;;;;;;;;4985015;28;20038;-45
2022/08/02 02:52:01;;;;;;;5.53;1.98;;;;;;;;;;4996925;28;20042;-47
2022/08/02 02:54:30;;;;;;;5.30;1.63;;;;;;;;;;5001909;28;20096;-47
2022/08/02 02:56:58;;;;;;;5.25;1.88;;;;;;;;;;4974855;28;20073;-47
2022/08/02 02:59:24;;;;;;;8.00;1.90;;;;;;;;;;5000262;28;20566;-46
2022/08/02 03:01:51;;;;;;;6.97;1.90;;;;;;;;;;4987796;28;20042;-51
2022/08/02 03:04:18;;;;;;;7.90;2.20;;;;;;;;;;4993219;28;20046;-48
2022/08/02 03:06:45;;;;;;;7.03;1.95;;;;;;;;;;4993223;28;20454;-46
2022/08/02 03:09:12;;;;;;;5.55;1.70;;;;;;;;;;4998224;28;20046;-47
2022/08/02 03:11:40;;;;;;;6.53;2.07;;;;;;;;;;4999475;28;20052;-48
2022/08/02 03:14:08;;;;;;;5.63;1.98;;;;;;;;;;4985339;28;20068;-47
2022/08/02 03:16:41;;;;;;;5.70;1.75;;;;;;;;;;4988478;28;20039;-47
2022/08/02 03:19:08;;;;;;;6.20;1.75;;;;;;;;;;4982276;28;20077;-48
2022/08/02 03:21:34;;;;;;;6.75;1.60;;;;;;;;;;4996078;28;20046;-49
2022/08/02 03:24:01;;;;;;;5.70;1.50;;;;;;;;;;4984570;28;20029;-51
2022/08/02 03:26:27;;;;;;;4.88;1.63;;;;;;;;;;4981605;28;20069;-46
2022/08/02 03:28:56;;;;;;;4.60;1.15;;;;;;;;;;4990532;28;20038;-49
2022/08/02 03:31:22;;;;;;;5.60;1.42;;;;;;;;;;4998779;28;20046;-46
2022/08/02 03:33:49;;;;;;;3.63;0.85;;;;;;;;;;4990667;28;20120;-47
2022/08/02 03:36:17;;;;;;;5.43;1.17;;;;;;;;;;4986577;28;20046;-49
2022/08/02 03:38:44;;;;;;;5.53;1.10;;;;;;;;;;5004800;28;20068;-49
2022/08/02 03:41:12;;;;;;;5.53;1.50;;;;;;;;;;4975460;28;20033;-47
2022/08/02 03:43:39;;;;;;;5.15;1.50;;;;;;;;;;4998973;28;20026;-45
2022/08/02 03:46:08;;;;;;;4.43;1.17;;;;;;;;;;4996004;28;20038;-45
2022/08/02 03:48:35;;;;;;;5.50;1.50;;;;;;;;;;4993754;28;20551;-46
2022/08/02 03:51:03;;;;;;;3.90;1.20;;;;;;;;;;4988106;28;20065;-46
2022/08/02 03:53:31;;;;;;;4.50;1.30;;;;;;;;;;4974949;28;20351;-45
2022/08/02 03:55:58;;;;;;;4.50;0.95;;;;;;;;;;4973620;28;20428;-50
2022/08/02 03:58:24;;;;;;;5.57;1.48;;;;;;;;;;4979813;28;20042;-45
2022/08/02 04:00:52;;;;;;;4.77;1.03;;;;;;;;;;4985711;28;20050;-45
2022/08/02 04:03:20;;;;;;;6.72;1.30;;;;;;;;;;4974646;28;20038;-46
2022/08/02 04:05:46;;;;;;;4.85;1.23;;;;;;;;;;4989770;28;20054;-50
2022/08/02 04:08:13;;;;;;;5.05;1.42;;;;;;;;;;4982605;28;20503;-45
2022/08/02 04:13:26;;;;;;;5.57;1.50;;;;;;;;;;4987224;28;20034;-46
2022/08/02 04:15:55;;;;;;;4.22;1.00;;;;;;;;;;4993985;28;20044;-48
2022/08/02 04:18:26;;;;;;;4.88;1.02;;;;;;;;;;4989857;28;20045;-48
2022/08/02 04:20:53;;;;;;;5.80;1.42;;;;;;;;;;4987263;28;20124;-46
2022/08/02 04:23:22;;;;;;;4.57;1.30;;;;;;;;;;4981278;28;20034;-47
2022/08/02 04:25:51;;;;;;;4.40;0.80;;;;;;;;;;4995416;28;20033;-47
2022/08/02 04:28:17;;;;;;;4.80;1.23;;;;;;;;;;4994267;28;20695;-47
2022/08/02 04:30:44;;;;;;;7.40;1.60;;;;;;;;;;4985443;28;20042;-47
2022/08/02 04:33:13;;;;;;;5.10;1.38;;;;;;;;;;4997073;28;20041;-45
2022/08/02 04:35:41;;;;;;;4.50;1.23;;;;;;;;;;4970722;28;20038;-47
2022/08/02 04:38:08;;;;;;;4.97;1.20;;;;;;;;;;4996173;28;20084;-45
2022/08/02 04:40:35;;;;;;;5.18;1.10;;;;;;;;;;5000668;28;20046;-47
2022/08/02 04:43:01;;;;;;;6.03;1.50;;;;;;;;;;4981623;28;20042;-46
2022/08/02 04:45:29;;;;;;;4.57;1.20;;;;;;;;;;4989753;28;20086;-48
2022/08/02 04:47:55;;;;;;;4.95;1.20;;;;;;;;;;5006497;28;20337;-48
2022/08/02 04:50:22;;;;;;;4.13;0.83;;;;;;;;;;5010586;28;20801;-45
2022/08/02 04:52:50;;;;;;;5.35;1.08;;;;;;;;;;5009018;28;20045;-47
2022/08/02 04:55:17;;;;;;;4.18;1.30;;;;;;;;;;5005091;28;20537;-46
2022/08/02 04:57:56;;;;;;;5.97;1.45;;;;;;;;;;5024816;28;20044;-48
2022/08/02 05:00:23;;;;;;;7.18;1.70;;;;;;;;;;5013627;28;20065;-47
2022/08/02 05:02:51;;;;;;;4.87;1.10;;;;;;;;;;5016919;28;20585;-48
2022/08/02 05:05:18;;;;;;;6.65;1.10;;;;;;;;;;5011505;28;20041;-50
2022/08/02 05:07:45;;;;;;;7.55;1.52;;;;;;;;;;5026513;28;20084;-49
2022/08/02 05:10:13;;;;;;;5.30;1.65;;;;;;;;;;5009536;28;21041;-46
2022/08/02 05:12:40;;;;;;;4.18;1.10;;;;;;;;;;5019209;28;20033;-48
2022/08/02 05:15:07;;;;;;;5.13;1.37;;;;;;;;;;5025740;28;20042;-47
2022/08/02 05:17:34;;;;;;;6.55;1.30;;;;;;;;;;5017747;28;20045;-45
2022/08/02 05:20:00;;;;;;;8.05;1.38;;;;;;;;;;5022346;28;20080;-45
2022/08/02 05:22:27;;;;;;;5.03;1.02;;;;;;;;;;5012832;28;20033;-48
2022/08/02 05:24:54;;;;;;;7.07;1.40;;;;;;;;;;5020634;28;20041;-49
2022/08/02 05:27:25;;;;;;;6.43;1.37;;;;;;;;;;4995633;28;20836;-48
2022/08/02 05:29:53;;;;;;;5.57;1.10;;;;;;;;;;5022334;28;20674;-45
2022/08/02 05:32:20;;;;;;;5.10;1.08;;;;;;;;;;5015741;28;20025;-46
2022/08/02 05:34:48;;;;;;;6.20;1.20;;;;;;;;;;5009355;28;20104;-50
2022/08/02 05:37:15;;;;;;;5.45;1.00;;;;;;;;;;5018319;28;20557;-49
2022/08/02 05:39:43;;;;;;;5.50;0.93;;;;;;;;;;5021924;28;21408;-48
2022/08/02 05:42:11;;;;;;;4.05;1.25;;;;;;;;;;5022976;28;20308;-49
2022/08/02 05:44:39;;;;;;;4.40;0.75;;;;;;;;;;5009884;28;20033;-47
2022/08/02 05:47:06;;;;;;;4.05;1.40;;;;;;;;;;5023139;28;20052;-52
2022/08/02 05:49:32;;;;;;;4.10;1.10;;;;;;;;;;5011978;28;20047;-48
2022/08/02 05:52:03;;;;;;;4.57;1.10;;;;;;;;;;4991800;28;20049;-49
2022/08/02 05:54:37;;;;;;;6.38;1.30;;;;;;;;;;4996818;28;20038;-47
2022/08/02 05:57:05;;;;;;;7.30;1.13;;;;;;;;;;4989990;28;20036;-49
2022/08/02 05:59:33;;;;;;;5.50;0.95;;;;;;;;;;4994840;28;20069;-51
2022/08/02 06:02:02;;;;;;;4.65;1.10;;;;;;;;;;4988818;28;20034;-47
2022/08/02 06:04:34;;;;;;;4.93;1.20;;;;;;;;;;4997301;28;20042;-46
2022/08/02 06:07:03;;;;;;;8.45;1.10;;;;;;;;;;4984765;28;20065;-47
2022/08/02 06:09:30;;;;;;;5.68;1.10;;;;;;;;;;4987382;28;20397;-48
2022/08/02 06:11:58;;;;;;;7.13;1.23;;;;;;;;;;4995719;28;20048;-49
2022/08/02 06:14:25;;;;;;;7.80;1.20;;;;;;;;;;4987197;28;20864;-51
2022/08/02 06:16:51;;;;;;;4.40;0.93;;;;;;;;;;4998633;28;20045;-50
2022/08/02 06:19:19;;;;;;;6.60;1.33;;;;;;;;;;4985560;28;20049;-49
2022/08/02 06:21:48;;;;;;;5.40;1.30;;;;;;;;;;4998447;28;20041;-48
2022/08/02 06:24:17;;;;;;;5.25;0.98;;;;;;;;;;4989352;28;20038;-49
2022/08/02 06:26:44;;;;;;;3.92;0.90;;;;;;;;;;4997623;28;20056;-51
2022/08/02 06:29:12;;;;;;;6.63;1.10;;;;;;;;;;4996761;28;20044;-47
2022/08/02 06:31:41;;;;;;;4.95;1.05;;;;;;;;;;4999892;28;20045;-50
2022/08/02 06:34:08;;;;;;;4.13;0.90;;;;;;;;;;4993376;28;20459;-49
2022/08/02 06:36:38;;;;;;;5.97;1.20;;;;;;;;;;4990964;28;20045;-47
2022/08/02 06:39:05;;;;;;;5.03;1.20;;;;;;;;;;5001094;28;20061;-49
2022/08/02 06:41:38;;;;;;;5.90;1.10;;;;;;;;;;4977411;28;21098;-51
2022/08/02 06:44:04;;;;;;;6.95;1.20;;;;;;;;;;5000016;28;20068;-48
2022/08/02 06:46:31;;;;;;;4.72;0.88;;;;;;;;;;4986496;28;20069;-46
2022/08/02 06:48:57;;;;;;;5.40;1.20;;;;;;;;;;4999207;28;20283;-47
2022/08/02 06:51:24;;;;;;;7.40;1.27;;;;;;;;;;4985291;28;20104;-46
2022/08/02 06:53:52;;;;;;;3.43;0.70;;;;;;;;;;4983494;28;20049;-47
2022/08/02 06:56:18;;;;;;;4.00;0.95;;;;;;;;;;4992763;28;20034;-47
2022/08/02 06:58:45;;;;;;;4.05;1.08;;;;;;;;;;4975986;28;21578;-52
2022/08/02 07:01:12;;;;;;;4.22;0.80;;;;;;;;;;4989311;28;20052;-49
2022/08/02 07:03:40;;;;;;;3.58;0.80;;;;;;;;;;4981141;28;20048;-47
2022/08/02 07:06:07;;;;;;;4.10;0.70;;;;;;;;;;4991969;28;20042;-49
2022/08/02 07:08:37;;;;;;;7.13;1.48;;;;;;;;;;4973961;28;20042;-51
2022/08/02 07:11:05;;;;;;;4.30;0.73;;;;;;;;;;4985969;28;20422;-51
2022/08/02 07:13:32;;;;;;;5.43;0.90;;;;;;;;;;4988441;28;20050;-47
2022/08/02 07:16:00;;;;;;;3.72;0.85;;;;;;;;;;4961405;28;20528;-48
2022/08/02 07:18:26;;;;;;;2.97;0.70;;;;;;;;;;4989924;28;20042;-50
2022/08/02 07:20:53;;;;;;;4.72;0.73;;;;;;;;;;4974871;28;20073;-49
2022/08/02 07:23:19;;;;;;;3.10;0.60;;;;;;;;;;4992650;28;20038;-49
2022/08/02 07:25:46;;;;;;;3.10;0.60;;;;;;;;;;4991305;28;20038;-48
2022/08/02 07:28:16;;;;;;;3.42;0.65;;;;;;;;;;4984983;28;20038;-49
2022/08/02 07:30:42;;;;;;;3.07;0.80;;;;;;;;;;4995966;28;20066;-49
2022/08/02 07:33:10;;;;;;;3.53;0.75;;;;;;;;;;4981021;28;20512;-49
2022/08/02 07:35:36;;;;;;;3.90;0.85;;;;;;;;;;4985693;28;20082;-47
2022/08/02 07:38:03;;;;;;;3.63;0.70;;;;;;;;;;4991856;28;20042;-47
2022/08/02 07:40:30;;;;;;;8.05;1.65;;;;;;;;;;4986902;28;20590;-52
2022/08/02 07:42:57;;;;;;;4.53;1.00;;;;;;;;;;4981979;28;21528;-50
2022/08/02 07:45:25;;;;;;;3.97;1.05;;;;;;;;;;4988849;28;20041;-49
2022/08/02 07:47:52;;;;;;;4.90;0.80;;;;;;;;;;4981556;28;20082;-48
2022/08/02 07:50:20;;;;;;;2.40;0.60;;;;;;;;;;4298594;28;10000853;-47
2022/08/02 07:52:47;;;;;;;3.65;0.80;;;;;;;;;;4998709;28;20735;-51
2022/08/02 07:55:14;;;;;;;3.20;0.85;;;;;;;;;;4989464;28;20302;-50
2022/08/02 07:57:41;;;;;;;2.42;0.47;;;;;;;;;;4987056;28;20042;-53
2022/08/02 08:00:09;;;;;;;4.07;0.90;;;;;;;;;;4948594;28;20069;-50
2022/08/02 08:02:37;;;;;;;3.73;0.60;;;;;;;;;;4990714;28;20050;-51
2022/08/02 08:05:05;;;;;;;3.00;0.80;;;;;;;;;;4970532;28;20086;-49
2022/08/02 08:07:32;;;;;;;3.60;0.57;;;;;;;;;;4991700;28;20916;-49
2022/08/02 08:09:59;;;;;;;2.97;0.80;;;;;;;;;;4967892;28;20052;-52
2022/08/02 08:12:26;;;;;;;3.00;0.60;;;;;;;;;;4634381;28;10000692;-48
2022/08/02 08:14:53;;;;;;;4.10;0.80;;;;;;;;;;4992117;28;20034;-50
2022/08/02 08:17:19;;;;;;;3.33;0.60;;;;;;;;;;4952092;28;20037;-52
2022/08/02 08:19:47;;;;;;;3.35;0.70;;;;;;;;;;4968236;28;20045;-48
2022/08/02 08:22:14;;;;;;;3.45;0.70;;;;;;;;;;4951182;28;20074;-52
2022/08/02 08:24:40;;;;;;;6.53;0.70;;;;;;;;;;4970079;28;20097;-51
2022/08/02 08:27:24;;;;;;;3.03;0.73;;;;;;;;;;4930311;28;20667;-50
2022/08/02 08:29:51;;;;;;;4.32;0.85;;;;;;;;;;4961296;28;20046;-53
2022/08/02 08:32:18;;;;;;;3.47;0.55;;;;;;;;;;4998838;28;20057;-51
2022/08/02 08:34:45;;;;;;;4.63;0.73;;;;;;;;;;4991758;28;20391;-50
2022/08/02 08:37:12;;;;;;;3.20;0.63;;;;;;;;;;4984492;28;20070;-51
2022/08/02 08:39:39;;;;;;;2.93;0.57;;;;;;;;;;4997130;28;20038;-51
2022/08/02 08:42:06;;;;;;;3.40;0.57;;;;;;;;;;4986243;28;20050;-53
2022/08/02 08:44:35;;;;;;;3.90;0.57;;;;;;;;;;4983083;28;20058;-49
2022/08/02 08:47:03;;;;;;;2.95;0.90;;;;;;;;;;5001827;28;20040;-52
2022/08/02 08:49:32;;;;;;;2.55;0.57;;;;;;;;;;4980650;28;20034;-53
2022/08/02 08:52:01;;;;;;;2.77;0.60;;;;;;;;;;4988293;28;20042;-51
2022/08/02 08:54:31;;;;;;;4.03;0.50;;;;;;;;;;4997404;28;20053;-54
2022/08/02 08:56:58;;;;;;;3.88;0.50;;;;;;;;;;4981823;28;20049;-53
2022/08/02 08:59:25;;;;;;;3.45;0.57;;;;;;;;;;4999094;28;20034;-49
2022/08/02 09:01:52;;;;;;;3.97;0.80;;;;;;;;;;4997073;28;20052;-51
2022/08/02 09:04:18;;;;;;;3.23;0.97;;;;;;;;;;5007225;28;20057;-49
2022/08/02 09:06:45;;;;;;;4.07;0.85;;;;;;;;;;4980839;28;20473;-50
2022/08/02 09:09:11;;;;;;;3.95;0.90;;;;;;;;;;4997808;28;20042;-48
2022/08/02 09:11:39;;;;;;;3.17;0.60;;;;;;;;;;4992815;28;20096;-52
2022/08/02 09:14:06;;;;;;;4.60;0.57;;;;;;;;;;4981827;28;20037;-48
2022/08/02 09:16:33;;;;;;;4.57;0.80;;;;;;;;;;4995995;28;20045;-50
2022/08/02 09:19:01;;;;;;;2.88;0.68;;;;;;;;;;4993150;28;20468;-51
2022/08/02 09:21:34;;;;;;;6.63;0.77;;;;;;;;;;4997387;28;20045;-50
2022/08/02 09:24:00;;;;;;;4.72;0.85;;;;;;;;;;4991475;28;20045;-51
2022/08/02 09:26:27;;;;;;;4.68;0.90;;;;;;;;;;4993005;28;20042;-54
2022/08/02 09:29:00;;;;;;;4.87;0.83;;;;;;;;;;4968811;28;20113;-47
2022/08/02 09:31:35;;;;;;;3.58;0.50;;;;;;;;;;4971309;28;20030;-50
2022/08/02 09:34:02;;;;;;;5.80;0.63;;;;;;;;;;4907821;28;20700;-49
2022/08/02 09:36:38;;;;;;;4.07;0.70;;;;;;;;;;4985634;28;20038;-49
2022/08/02 09:39:05;;;;;;;3.95;0.75;;;;;;;;;;4999978;28;20072;-50
2022/08/02 09:41:33;;;;;;;3.60;0.70;;;;;;;;;;4992418;28;20313;-49
2022/08/02 09:44:01;;;;;;;6.13;0.85;;;;;;;;;;4989599;28;20038;-51
2022/08/02 09:46:29;;;;;;;3.58;0.80;;;;;;;;;;5000622;28;20565;-50
2022/08/02 09:48:56;;;;;;;5.50;0.40;;;;;;;;;;4997620;28;20045;-51
2022/08/02 09:51:24;;;;;;;4.55;0.82;;;;;;;;;;4991949;28;20046;-51
2022/08/02 09:53:52;;;;;;;3.47;0.53;;;;;;;;;;4996322;28;20050;-50
2022/08/02 09:56:19;;;;;;;2.92;0.70;;;;;;;;;;5001779;28;20052;-52
2022/08/02 09:58:46;;;;;;;3.67;0.60;;;;;;;;;;4996617;28;20068;-48
2022/08/02 10:01:14;;;;;;;2.92;0.52;;;;;;;;;;4998252;28;20084;-48
2022/08/02 10:03:55;;;;;;;4.72;0.85;;;;;;;;;;4992744;28;20046;-51
2022/08/02 10:06:23;;;;;;;2.17;0.50;;;;;;;;;;4966917;28;20060;-50
2022/08/02 10:08:52;;;;;;;2.67;0.50;;;;;;;;;;4994536;28;20053;-46
2022/08/02 10:11:18;;;;;;;3.33;0.60;;;;;;;;;;4651090;28;10000823;-52
2022/08/02 10:13:45;;;;;;;3.65;0.57;;;;;;;;;;4974258;28;20683;-47
2022/08/02 10:16:15;;;;;;;3.88;0.60;;;;;;;;;;4992359;28;20046;-50
2022/08/02 10:18:43;;;;;;;2.60;0.70;;;;;;;;;;4988594;28;20102;-51
2022/08/02 10:21:20;;;;;;;3.53;0.63;;;;;;;;;;4982254;28;20042;-47
2022/08/02 10:23:47;;;;;;;3.38;0.68;;;;;;;;;;4993410;28;20049;-47
2022/08/02 10:26:18;;;;;;;3.28;0.90;;;;;;;;;;4997609;28;20558;-49
2022/08/02 10:28:46;;;;;;;3.22;0.90;;;;;;;;;;4988755;28;21472;-53
2022/08/02 10:31:14;;;;;;;3.67;0.80;;;;;;;;;;4971266;28;20038;-49
2022/08/02 10:33:41;;;;;;;3.90;0.52;;;;;;;;;;4971324;28;20492;-48
2022/08/02 10:36:10;;;;;;;2.72;0.60;;;;;;;;;;4996335;28;20038;-49
2022/08/02 10:38:37;;;;;;;4.57;0.50;;;;;;;;;;4988285;28;20073;-51
2022/08/02 10:41:06;;;;;;;3.13;0.65;;;;;;;;;;4982538;28;20049;-50
2022/08/02 10:43:40;;;;;;;3.00;0.73;;;;;;;;;;4982289;28;20041;-53
2022/08/02 10:46:31;;;;;;;2.80;0.60;;;;;;;;;;4988343;28;20042;-51
2022/08/02 10:49:08;;;;;;;2.42;0.40;;;;;;;;;;4995454;28;20042;-49
2022/08/02 10:51:56;;;;;;;3.95;0.68;;;;;;;;;;4995592;28;20230;-48
2022/08/02 10:54:27;;;;;;;2.40;0.60;;;;;;;;;;4997686;28;20038;-58
2022/08/02 10:56:56;;;;;;;2.83;0.70;;;;;;;;;;4955176;28;20569;-50
2022/08/02 10:59:27;;;;;;;2.38;0.73;;;;;;;;;;5003217;28;20040;-50
2022/08/02 11:02:01;;;;;;;2.97;0.60;;;;;;;;;;4986198;28;20544;-50
2022/08/02 11:04:31;;;;;;;3.75;0.77;;;;;;;;;;5010209;28;20573;-49
2022/08/02 11:07:07;;;;;;;2.50;0.60;;;;;;;;;;4982179;28;20252;-50
2022/08/02 11:09:35;;;;;;;2.90;0.60;;;;;;;;;;4988102;28;20046;-50
2022/08/02 11:12:03;;;;;;;3.08;0.57;;;;;;;;;;5002018;28;20042;-48
2022/08/02 11:14:31;;;;;;;2.35;0.60;;;;;;;;;;4999672;28;20037;-49
2022/08/02 11:17:21;;;;;;;2.78;0.50;;;;;;;;;;4991599;28;20034;-50
2022/08/02 11:20:02;;;;;;;3.13;0.65;;;;;;;;;;4985061;28;20042;-46
2022/08/02 11:22:29;;;;;;;2.53;0.67;;;;;;;;;;4980477;28;20266;-50
2022/08/02 11:24:57;;;;;;;2.30;0.50;;;;;;;;;;4995645;28;20048;-49
2022/08/02 11:27:23;;;;;;;4.22;0.60;;;;;;;;;;4997228;28;20038;-48
2022/08/02 11:29:50;;;;;;;2.33;0.50;;;;;;;;;;5004511;28;20045;-47
2022/08/02 11:32:20;;;;;;;2.60;0.50;;;;;;;;;;4987455;28;20048;-48
2022/08/02 11:34:48;;;;;;;4.33;0.80;;;;;;;;;;4993812;28;20068;-50
2022/08/02 11:37:27;;;;;;;2.70;0.60;;;;;;;;;;4986195;28;20500;-46
2022/08/02 11:39:53;;;;;;;2.72;0.70;;;;;;;;;;4993374;28;20042;-48
2022/08/02 11:42:21;;;;;;;2.42;0.50;;;;;;;;;;5000958;28;20050;-48
2022/08/02 11:44:48;;;;;;;4.18;0.70;;;;;;;;;;4985589;28;20100;-46
2022/08/02 11:47:14;;;;;;;3.60;0.70;;;;;;;;;;5004388;28;20041;-46
2022/08/02 11:49:42;;;;;;;2.60;0.50;;;;;;;;;;4971232;28;20061;-48
2022/08/02 11:52:09;;;;;;;2.78;0.60;;;;;;;;;;4998103;28;20042;-49
2022/08/02 11:54:39;;;;;;;3.42;0.55;;;;;;;;;;4987307;28;20041;-46
2022/08/02 11:57:09;;;;;;;2.30;0.50;;;;;;;;;;4977654;28;20341;-49
2022/08/02 11:59:39;;;;;;;5.90;0.90;;;;;;;;;;4982421;28;20076;-47
2022/08/02 12:02:06;;;;;;;2.55;0.50;;;;;;;;;;4987715;28;20072;-50
2022/08/02 12:04:33;;;;;;;4.05;0.82;;;;;;;;;;4986149;28;20057;-49
2022/08/02 12:07:00;;;;;;;3.22;0.68;;;;;;;;;;4977808;28;20038;-52
2022/08/02 12:09:27;;;;;;;3.50;0.80;;;;;;;;;;4283906;28;10000820;-50
2022/08/02 12:11:54;;;;;;;2.83;0.60;;;;;;;;;;4998765;28;20515;-47
2022/08/02 12:14:22;;;;;;;4.50;0.90;;;;;;;;;;4969910;28;20072;-48
2022/08/02 12:19:34;;;;;;;4.60;0.80;;;;;;;;;;4980869;28;20077;-48
2022/08/02 12:22:16;;;;;;;3.00;0.80;;;;;;;;;;4990512;28;20050;-50
2022/08/02 12:24:44;;;;;;;3.65;1.02;;;;;;;;;;4987833;28;20049;-49
2022/08/02 12:27:11;;;;;;;2.90;0.60;;;;;;;;;;4987708;28;20470;-47
2022/08/02 12:29:38;;;;;;;4.57;0.57;;;;;;;;;;4993940;28;20105;-50
2022/08/02 12:32:06;;;;;;;4.43;0.80;;;;;;;;;;4990980;28;20078;-49
2022/08/02 12:34:34;;;;;;;4.82;0.75;;;;;;;;;;4982261;28;20080;-48
2022/08/02 12:37:01;;;;;;;4.57;0.90;;;;;;;;;;4976592;28;20121;-48
2022/08/02 12:39:38;;;;;;;4.70;0.97;;;;;;;;;;4978952;28;20050;-48
2022/08/02 12:42:06;;;;;;;3.20;0.73;;;;;;;;;;4994298;28;20041;-47
2022/08/02 12:44:33;;;;;;;4.03;0.80;;;;;;;;;;4964760;28;21052;-48
2022/08/02 12:47:00;;;;;;;2.42;0.55;;;;;;;;;;4638139;28;10000503;-50
2022/08/02 12:49:28;;;;;;;4.45;1.25;;;;;;;;;;4989340;28;20053;-48
2022/08/02 12:51:55;;;;;;;4.07;1.00;;;;;;;;;;5024918;28;20087;-50
2022/08/02 12:54:23;;;;;;;4.40;1.25;;;;;;;;;;5023545;28;20042;-51
2022/08/02 12:56:51;;;;;;;3.70;0.70;;;;;;;;;;5008553;28;20682;-46
2022/08/02 12:59:32;;;;;;;5.40;1.17;;;;;;;;;;5016680;28;20041;-48
2022/08/02 13:02:01;;;;;;;5.18;0.85;;;;;;;;;;4997977;28;20111;-48
2022/08/02 13:04:28;;;;;;;5.23;1.00;;;;;;;;;;5018421;28;20087;-48
2022/08/02 13:06:55;;;;;;;4.28;1.02;;;;;;;;;;5011527;28;20061;-50
2022/08/02 13:09:23;;;;;;;3.33;0.93;;;;;;;;;;5017652;28;20037;-48
2022/08/02 13:11:49;;;;;;;3.90;0.60;;;;;;;;;;5028670;28;20041;-47
2022/08/02 13:14:16;;;;;;;4.97;0.90;;;;;;;;;;5028083;28;20047;-56
2022/08/02 13:16:43;;;;;;;5.40;1.27;;;;;;;;;;5025210;28;20507;-49
2022/08/02 13:19:10;;;;;;;5.97;1.30;;;;;;;;;;5024695;28;20507;-48
2022/08/02 13:21:37;;;;;;;3.53;1.13;;;;;;;;;;5016036;28;20105;-49
2022/08/02 13:24:04;;;;;;;3.88;1.05;;;;;;;;;;5019857;28;20591;-49
2022/08/02 13:26:31;;;;;;;5.85;1.30;;;;;;;;;;5007486;28;20749;-47
2022/08/02 13:28:57;;;;;;;5.13;1.00;;;;;;;;;;5014032;28;20034;-47
2022/08/02 13:31:24;;;;;;;5.70;1.08;;;;;;;;;;5026706;28;20514;-47
2022/08/02 13:33:50;;;;;;;6.32;1.10;;;;;;;;;;5012214;28;20066;-46
2022/08/02 13:36:17;;;;;;;3.70;1.00;;;;;;;;;;5009112;28;20029;-49
2022/08/02 13:38:45;;;;;;;6.88;1.70;;;;;;;;;;5026244;28;20041;-51
2022/08/02 13:41:13;;;;;;;6.03;1.77;;;;;;;;;;4994193;28;20160;-51
2022/08/02 13:43:40;;;;;;;5.13;1.25;;;;;;;;;;5025279;28;20057;-48
2022/08/02 13:46:08;;;;;;;4.50;1.35;;;;;;;;;;4975476;28;20037;-50
2022/08/02 13:48:35;;;;;;;6.55;1.20;;;;;;;;;;5017927;28;20136;-51
2022/08/02 13:51:02;;;;;;;7.13;1.13;;;;;;;;;;4968607;28;20049;-49
2022/08/02 13:53:29;;;;;;;4.77;1.60;;;;;;;;;;4988595;28;20034;-45
2022/08/02 13:55:58;;;;;;;5.50;1.20;;;;;;;;;;5001234;28;20044;-50
2022/08/02 13:58:25;;;;;;;5.20;1.73;;;;;;;;;;4993118;28;20064;-47
2022/08/02 14:00:52;;;;;;;7.50;1.45;;;;;;;;;;4973089;28;20587;-49
2022/08/02 14:03:18;;;;;;;6.13;2.05;;;;;;;;;;4990755;28;20037;-48
2022/08/02 14:05:45;;;;;;;5.90;1.30;;;;;;;;;;4983832;28;20062;-49
2022/08/02 14:08:11;;;;;;;5.65;1.17;;;;;;;;;;4970330;28;20294;-46
2022/08/02 14:10:38;;;;;;;6.88;1.50;;;;;;;;;;4952414;28;20400;-48
2022/08/02 14:13:06;;;;;;;7.40;1.48;;;;;;;;;;4960046;28;20652;-48
2022/08/02 14:15:32;;;;;;;5.28;1.30;;;;;;;;;;4962065;28;20038;-49
2022/08/02 14:18:00;;;;;;;5.47;1.37;;;;;;;;;;4960374;28;20049;-54
2022/08/02 14:20:26;;;;;;;6.80;1.50;;;;;;;;;;4979544;28;20050;-46
2022/08/02 14:22:53;;;;;;;6.68;1.48;;;;;;;;;;4959207;28;20038;-48
2022/08/02 14:25:19;;;;;;;9.18;1.80;;;;;;;;;;4972399;28;20520;-47
2022/08/02 14:27:46;;;;;;;7.18;1.48;;;;;;;;;;4940601;28;20053;-49
2022/08/02 14:30:14;;;;;;;6.37;1.67;;;;;;;;;;4960683;28;20523;-46
2022/08/02 14:32:41;;;;;;;5.65;1.60;;;;;;;;;;4940989;28;20046;-46
2022/08/02 14:35:08;;;;;;;5.55;1.73;;;;;;;;;;4981032;28;21440;-50
2022/08/02 14:37:34;;;;;;;8.63;2.03;;;;;;;;;;4960521;28;21129;-46
2022/08/02 14:40:01;;;;;;;7.78;1.73;;;;;;;;;;4977318;28;21463;-47
2022/08/02 14:42:27;;;;;;;7.17;1.73;;;;;;;;;;4961760;28;20039;-50
2022/08/02 14:44:54;;;;;;;6.05;1.77;;;;;;;;;;4960706;28;20041;-48
2022/08/02 14:47:29;;;;;;;7.93;1.59;;;;;;;;;;4506238;28;10001980;-49
2022/08/02 14:49:55;;;;;;;9.30;2.13;;;;;;;;;;4969521;28;20057;-48
2022/08/02 14:52:22;;;;;;;7.25;1.65;;;;;;;;;;4985955;28;20052;-45
2022/08/02 14:54:49;;;;;;;7.05;1.50;;;;;;;;;;4992776;28;20053;-48